createdAt,value
2017-01-20T00:00:31.549Z,0
2017-01-20T00:01:13.246Z,0
2017-01-20T00:01:54.934Z,0
2017-01-20T00:02:36.674Z,0
2017-01-20T00:03:18.248Z,0
2017-01-20T00:03:59.954Z,0
2017-01-20T00:04:41.635Z,0
2017-01-20T00:05:23.354Z,0
2017-01-20T00:06:05.077Z,0
2017-01-20T00:08:36.285Z,0
2017-01-20T00:11:07.289Z,0
2017-01-20T00:13:39.148Z,0
2017-01-20T00:14:20.800Z,0
2017-01-20T00:16:36.040Z,0
2017-01-20T00:17:17.770Z,0
2017-01-20T00:21:48.806Z,0
2017-01-20T00:25:58.727Z,0
2017-01-20T00:28:35.102Z,0
2017-01-20T00:29:16.820Z,0
2017-01-20T00:31:52.930Z,0
2017-01-20T00:32:34.667Z,0
2017-01-20T00:33:16.288Z,0
2017-01-20T00:33:57.962Z,0
2017-01-20T00:34:39.626Z,0
2017-01-20T00:35:21.342Z,0
2017-01-20T00:37:21.414Z,0
2017-01-20T00:38:03.094Z,0
2017-01-20T00:38:44.908Z,0
2017-01-20T00:39:26.575Z,0
2017-01-20T00:41:42.009Z,0
2017-01-20T00:42:23.765Z,0
2017-01-20T00:43:05.519Z,0
2017-01-20T00:43:47.302Z,0
2017-01-20T00:44:28.997Z,0
2017-01-20T00:45:10.840Z,0
2017-01-20T00:45:52.531Z,0
2017-01-20T00:46:34.223Z,0
2017-01-20T00:47:15.938Z,0
2017-01-20T00:47:57.691Z,0
2017-01-20T00:48:39.300Z,0
2017-01-20T00:49:21.044Z,0
2017-01-20T00:51:36.382Z,0
2017-01-20T00:52:17.983Z,0
2017-01-20T00:52:59.710Z,0
2017-01-20T00:53:41.480Z,0
2017-01-20T00:54:23.081Z,0
2017-01-20T00:55:04.825Z,0
2017-01-20T00:55:46.437Z,0
2017-01-20T00:56:28.149Z,0
2017-01-20T00:57:09.822Z,0
2017-01-20T00:57:51.433Z,0
2017-01-20T00:58:33.208Z,0
2017-01-20T00:59:14.939Z,0
2017-01-20T01:01:51.272Z,0
2017-01-20T01:02:32.721Z,0
2017-01-20T01:03:14.361Z,0
2017-01-20T01:03:55.927Z,0
2017-01-20T01:06:16.327Z,0
2017-01-20T01:06:57.873Z,0
2017-01-20T01:07:39.206Z,0
2017-01-20T01:10:10.225Z,0
2017-01-20T01:10:51.929Z,0
2017-01-20T01:11:33.681Z,0
2017-01-20T01:12:15.434Z,0
2017-01-20T01:12:56.758Z,0
2017-01-20T01:13:38.394Z,0
2017-01-20T01:14:19.963Z,0
2017-01-20T01:15:01.687Z,0
2017-01-20T01:15:43.251Z,0
2017-01-20T01:17:58.636Z,0
2017-01-20T01:18:40.411Z,0
2017-01-20T01:19:22.113Z,0
2017-01-20T01:20:03.825Z,0
2017-01-20T01:20:45.586Z,0
2017-01-20T01:21:27.300Z,0
2017-01-20T01:22:09.062Z,0
2017-01-20T01:22:50.830Z,0
2017-01-20T01:23:32.606Z,0
2017-01-20T01:24:14.346Z,0
2017-01-20T01:24:56.098Z,0
2017-01-20T01:25:37.845Z,0
2017-01-20T01:26:19.599Z,0
2017-01-20T01:27:01.217Z,0
2017-01-20T01:27:42.682Z,0
2017-01-20T01:28:24.236Z,0
2017-01-20T01:29:05.853Z,0
2017-01-20T01:29:47.558Z,0
2017-01-20T01:30:29.284Z,0
2017-01-20T01:31:11.056Z,0
2017-01-20T01:31:52.729Z,0
2017-01-20T01:32:34.429Z,0
2017-01-20T01:33:15.939Z,0
2017-01-20T01:35:52.238Z,0
2017-01-20T01:36:34.009Z,0
2017-01-20T01:37:15.709Z,0
2017-01-20T01:37:57.287Z,0
2017-01-20T01:38:38.956Z,0
2017-01-20T01:41:10.082Z,0
2017-01-20T01:41:51.825Z,0
2017-01-20T01:42:33.515Z,0
2017-01-20T01:43:15.310Z,0
2017-01-20T01:43:56.980Z,0
2017-01-20T01:46:33.389Z,0
2017-01-20T01:47:15.045Z,0
2017-01-20T01:49:35.659Z,0
2017-01-20T01:50:17.185Z,0
2017-01-20T01:50:58.841Z,0
2017-01-20T01:52:58.919Z,0
2017-01-20T01:53:40.576Z,0
2017-01-20T01:54:22.281Z,0
2017-01-20T01:55:03.954Z,0
2017-01-20T01:55:45.776Z,0
2017-01-20T01:56:27.447Z,0
2017-01-20T01:57:09.109Z,0
2017-01-20T01:57:50.605Z,0
2017-01-20T01:58:32.048Z,0
2017-01-20T01:59:13.780Z,0
2017-01-20T01:59:55.382Z,0
2017-01-20T02:00:35.897Z,0
2017-01-20T02:01:16.437Z,0
2017-01-20T02:01:56.968Z,0
2017-01-20T02:02:37.488Z,0
2017-01-20T02:03:18.022Z,0
2017-01-20T02:03:58.541Z,0
2017-01-20T02:04:39.080Z,0
2017-01-20T02:05:19.603Z,0
2017-01-20T02:06:00.125Z,0
2017-01-20T02:06:40.653Z,0
2017-01-20T02:07:21.216Z,0
2017-01-20T02:08:01.740Z,0
2017-01-20T02:08:42.272Z,0
2017-01-20T02:09:22.789Z,0
2017-01-20T02:10:03.330Z,0
2017-01-20T02:10:43.854Z,0
2017-01-20T02:11:24.384Z,0
2017-01-20T02:12:04.910Z,0
2017-01-20T02:12:45.438Z,0
2017-01-20T02:13:25.956Z,0
2017-01-20T02:14:06.495Z,0
2017-01-20T02:14:47.027Z,0
2017-01-20T02:15:27.548Z,0
2017-01-20T02:16:08.076Z,0
2017-01-20T02:16:48.605Z,0
2017-01-20T02:17:29.136Z,0
2017-01-20T02:18:09.666Z,0
2017-01-20T02:18:50.190Z,0
2017-01-20T02:19:30.712Z,0
2017-01-20T02:20:11.247Z,0
2017-01-20T02:20:51.763Z,0
2017-01-20T02:21:32.294Z,0
2017-01-20T02:22:12.820Z,0
2017-01-20T02:22:53.348Z,0
2017-01-20T02:23:33.881Z,0
2017-01-20T02:24:14.396Z,0
2017-01-20T02:24:54.925Z,0
2017-01-20T02:25:35.456Z,0
2017-01-20T02:26:15.983Z,0
2017-01-20T02:26:56.514Z,0
2017-01-20T02:27:37.035Z,0
2017-01-20T02:28:17.561Z,0
2017-01-20T02:28:58.093Z,0
2017-01-20T02:29:38.627Z,0
2017-01-20T02:30:19.149Z,0
2017-01-20T02:30:59.676Z,0
2017-01-20T02:31:40.206Z,0
2017-01-20T02:32:20.735Z,0
2017-01-20T02:33:01.247Z,0
2017-01-20T02:33:41.776Z,0
2017-01-20T02:34:22.304Z,0
2017-01-20T02:35:02.838Z,0
2017-01-20T02:35:43.371Z,0
2017-01-20T02:36:23.898Z,0
2017-01-20T02:37:04.421Z,0
2017-01-20T02:37:44.955Z,0
2017-01-20T02:38:25.486Z,0
2017-01-20T02:39:06.017Z,0
2017-01-20T02:39:46.531Z,0
2017-01-20T02:40:27.050Z,0
2017-01-20T02:41:07.582Z,0
2017-01-20T02:41:48.102Z,0
2017-01-20T02:42:28.629Z,0
2017-01-20T02:43:09.156Z,0
2017-01-20T02:43:49.689Z,0
2017-01-20T02:44:30.205Z,0
2017-01-20T02:45:10.737Z,0
2017-01-20T02:45:51.264Z,0
2017-01-20T02:46:31.793Z,0
2017-01-20T02:47:12.315Z,0
2017-01-20T02:47:52.839Z,0
2017-01-20T02:48:33.361Z,0
2017-01-20T02:49:13.890Z,0
2017-01-20T02:49:54.423Z,0
2017-01-20T02:50:34.946Z,0
2017-01-20T02:51:15.473Z,0
2017-01-20T02:51:56.013Z,0
2017-01-20T02:52:36.530Z,0
2017-01-20T02:53:17.073Z,0
2017-01-20T02:53:57.597Z,0
2017-01-20T02:54:38.122Z,0
2017-01-20T02:55:18.687Z,0
2017-01-20T02:55:59.212Z,0
2017-01-20T02:56:39.743Z,0
2017-01-20T02:57:20.277Z,0
2017-01-20T02:58:00.802Z,0
2017-01-20T02:58:41.323Z,0
2017-01-20T02:59:21.853Z,0
2017-01-20T03:00:02.383Z,0
2017-01-20T03:00:42.911Z,0
2017-01-20T03:01:23.440Z,0
2017-01-20T03:02:03.974Z,0
2017-01-20T03:02:44.505Z,0
2017-01-20T03:03:25.036Z,0
2017-01-20T03:04:05.563Z,0
2017-01-20T03:04:46.096Z,0
2017-01-20T03:05:26.618Z,0
2017-01-20T03:06:07.154Z,0
2017-01-20T03:06:47.683Z,0
2017-01-20T03:07:28.220Z,0
2017-01-20T03:08:08.741Z,0
2017-01-20T03:08:49.269Z,0
2017-01-20T03:09:29.793Z,0
2017-01-20T03:10:10.329Z,0
2017-01-20T03:10:50.856Z,0
2017-01-20T03:11:31.382Z,0
2017-01-20T03:12:11.919Z,0
2017-01-20T03:12:52.433Z,0
2017-01-20T03:13:32.959Z,0
2017-01-20T03:14:13.487Z,0
2017-01-20T03:14:54.015Z,0
2017-01-20T03:15:34.539Z,0
2017-01-20T03:16:15.059Z,0
2017-01-20T03:16:55.585Z,0
2017-01-20T03:17:36.116Z,0
2017-01-20T03:18:16.642Z,0
2017-01-20T03:18:57.170Z,0
2017-01-20T03:19:37.703Z,0
2017-01-20T03:20:18.238Z,0
2017-01-20T03:20:58.770Z,0
2017-01-20T03:21:39.306Z,0
2017-01-20T03:22:19.837Z,0
2017-01-20T03:23:00.362Z,0
2017-01-20T03:23:40.885Z,0
2017-01-20T03:24:21.421Z,0
2017-01-20T03:25:01.938Z,0
2017-01-20T03:25:42.458Z,0
2017-01-20T03:26:22.988Z,0
2017-01-20T03:27:03.519Z,0
2017-01-20T03:27:44.027Z,0
2017-01-20T03:28:24.544Z,0
2017-01-20T03:29:05.078Z,0
2017-01-20T03:29:45.613Z,0
2017-01-20T03:30:26.146Z,0
2017-01-20T03:31:06.668Z,0
2017-01-20T03:31:47.204Z,0
2017-01-20T03:32:27.730Z,0
2017-01-20T03:33:08.263Z,0
2017-01-20T03:33:48.783Z,0
2017-01-20T03:34:29.306Z,0
2017-01-20T03:35:09.832Z,0
2017-01-20T03:35:50.371Z,0
2017-01-20T03:36:30.894Z,0
2017-01-20T03:37:11.431Z,0
2017-01-20T03:37:51.947Z,0
2017-01-20T03:38:32.479Z,0
2017-01-20T03:39:13.016Z,0
2017-01-20T03:39:53.547Z,0
2017-01-20T03:40:34.065Z,0
2017-01-20T03:41:14.596Z,0
2017-01-20T03:41:55.127Z,0
2017-01-20T03:42:35.648Z,0
2017-01-20T03:43:16.174Z,0
2017-01-20T03:43:56.701Z,0
2017-01-20T03:44:37.237Z,0
2017-01-20T03:45:17.771Z,0
2017-01-20T03:45:58.299Z,0
2017-01-20T03:46:38.819Z,0
2017-01-20T03:47:19.359Z,0
2017-01-20T03:47:59.889Z,0
2017-01-20T03:48:40.415Z,0
2017-01-20T03:49:20.944Z,0
2017-01-20T03:50:01.470Z,0
2017-01-20T03:50:41.999Z,0
2017-01-20T03:51:22.526Z,0
2017-01-20T03:52:03.052Z,0
2017-01-20T03:52:43.575Z,0
2017-01-20T03:53:24.104Z,0
2017-01-20T03:54:04.634Z,0
2017-01-20T03:54:45.155Z,0
2017-01-20T03:55:25.672Z,0
2017-01-20T03:56:06.203Z,0
2017-01-20T03:56:46.727Z,0
2017-01-20T03:57:27.276Z,0
2017-01-20T03:58:07.808Z,0
2017-01-20T03:58:48.331Z,0
2017-01-20T03:59:28.856Z,0
2017-01-20T04:00:09.388Z,0
2017-01-20T04:00:49.912Z,0
2017-01-20T04:01:30.441Z,0
2017-01-20T04:02:10.960Z,0
2017-01-20T04:02:51.496Z,0
2017-01-20T04:03:32.023Z,0
2017-01-20T04:04:12.557Z,0
2017-01-20T04:04:53.086Z,0
2017-01-20T04:05:33.613Z,0
2017-01-20T04:06:14.148Z,0
2017-01-20T04:06:54.676Z,0
2017-01-20T04:07:35.210Z,0
2017-01-20T04:08:15.737Z,0
2017-01-20T04:08:56.264Z,0
2017-01-20T04:09:36.814Z,0
2017-01-20T04:10:17.350Z,0
2017-01-20T04:10:57.873Z,0
2017-01-20T04:11:38.411Z,0
2017-01-20T04:12:18.937Z,0
2017-01-20T04:12:59.466Z,0
2017-01-20T04:13:40.002Z,0
2017-01-20T04:14:20.532Z,0
2017-01-20T04:15:01.062Z,0
2017-01-20T04:15:41.588Z,0
2017-01-20T04:16:22.119Z,0
2017-01-20T04:17:02.654Z,0
2017-01-20T04:17:43.187Z,0
2017-01-20T04:18:23.717Z,0
2017-01-20T04:19:04.239Z,0
2017-01-20T04:19:44.759Z,0
2017-01-20T04:20:25.289Z,0
2017-01-20T04:21:05.810Z,0
2017-01-20T04:21:46.342Z,0
2017-01-20T04:22:26.862Z,0
2017-01-20T04:23:07.397Z,0
2017-01-20T04:23:47.925Z,0
2017-01-20T04:24:28.451Z,0
2017-01-20T04:25:08.977Z,0
2017-01-20T04:25:49.507Z,0
2017-01-20T04:26:30.041Z,0
2017-01-20T04:27:10.557Z,0
2017-01-20T04:27:51.083Z,0
2017-01-20T04:28:31.613Z,0
2017-01-20T04:29:12.139Z,0
2017-01-20T04:29:52.670Z,0
2017-01-20T04:30:33.193Z,0
2017-01-20T04:31:13.770Z,0
2017-01-20T04:31:54.273Z,0
2017-01-20T04:32:34.811Z,0
2017-01-20T04:33:15.341Z,0
2017-01-20T04:33:55.862Z,0
2017-01-20T04:34:36.396Z,0
2017-01-20T04:35:16.924Z,0
2017-01-20T04:35:57.459Z,0
2017-01-20T04:36:37.994Z,0
2017-01-20T04:37:18.524Z,0
2017-01-20T04:37:59.048Z,0
2017-01-20T04:38:39.571Z,0
2017-01-20T04:39:20.112Z,0
2017-01-20T04:40:00.647Z,0
2017-01-20T04:40:41.179Z,0
2017-01-20T04:41:21.708Z,0
2017-01-20T04:42:02.228Z,0
2017-01-20T04:42:42.765Z,0
2017-01-20T04:43:23.316Z,0
2017-01-20T04:44:03.848Z,0
2017-01-20T04:44:44.381Z,0
2017-01-20T04:45:24.905Z,0
2017-01-20T04:46:05.433Z,0
2017-01-20T04:46:45.975Z,0
2017-01-20T04:47:26.504Z,0
2017-01-20T04:48:07.019Z,0
2017-01-20T04:48:47.553Z,0
2017-01-20T04:49:28.082Z,0
2017-01-20T04:50:08.620Z,0
2017-01-20T04:50:49.167Z,0
2017-01-20T04:51:29.707Z,0
2017-01-20T04:52:10.237Z,0
2017-01-20T04:52:50.766Z,0
2017-01-20T04:53:31.288Z,0
2017-01-20T04:54:11.823Z,0
2017-01-20T04:54:52.353Z,0
2017-01-20T04:55:32.879Z,0
2017-01-20T04:56:13.412Z,0
2017-01-20T04:56:53.935Z,0
2017-01-20T04:57:34.475Z,0
2017-01-20T04:58:15.006Z,0
2017-01-20T04:58:55.529Z,0
2017-01-20T04:59:36.062Z,0
2017-01-20T05:00:16.586Z,0
2017-01-20T05:00:57.195Z,0
2017-01-20T05:01:37.723Z,0
2017-01-20T05:02:18.246Z,0
2017-01-20T05:02:58.765Z,0
2017-01-20T05:03:39.296Z,0
2017-01-20T05:04:19.827Z,0
2017-01-20T05:05:00.354Z,0
2017-01-20T05:05:40.883Z,0
2017-01-20T05:06:21.410Z,0
2017-01-20T05:07:01.947Z,0
2017-01-20T05:07:42.476Z,0
2017-01-20T05:08:23.000Z,0
2017-01-20T05:09:03.534Z,0
2017-01-20T05:09:44.059Z,0
2017-01-20T05:10:24.588Z,0
2017-01-20T05:11:05.119Z,0
2017-01-20T05:11:45.647Z,0
2017-01-20T05:12:26.254Z,0
2017-01-20T05:13:06.776Z,0
2017-01-20T05:13:47.306Z,0
2017-01-20T05:14:27.903Z,0
2017-01-20T05:15:08.444Z,0
2017-01-20T05:15:49.020Z,0
2017-01-20T05:16:29.550Z,0
2017-01-20T05:17:10.070Z,0
2017-01-20T05:17:50.613Z,0
2017-01-20T05:18:31.143Z,0
2017-01-20T05:19:11.680Z,0
2017-01-20T05:19:52.211Z,0
2017-01-20T05:20:32.733Z,0
2017-01-20T05:21:13.263Z,0
2017-01-20T05:21:53.804Z,0
2017-01-20T05:22:34.332Z,0
2017-01-20T05:23:14.862Z,0
2017-01-20T05:23:55.393Z,0
2017-01-20T05:24:35.925Z,0
2017-01-20T05:25:16.459Z,0
2017-01-20T05:25:57.000Z,0
2017-01-20T05:26:37.558Z,0
2017-01-20T05:27:18.076Z,0
2017-01-20T05:27:58.609Z,0
2017-01-20T05:28:39.205Z,0
2017-01-20T05:29:19.724Z,0
2017-01-20T05:30:00.269Z,0
2017-01-20T05:30:40.961Z,0
2017-01-20T05:31:21.557Z,0
2017-01-20T05:32:02.223Z,0
2017-01-20T05:32:42.861Z,0
2017-01-20T05:35:12.391Z,0
2017-01-20T05:35:52.965Z,0
2017-01-20T05:36:33.551Z,0
2017-01-20T05:37:14.172Z,0
2017-01-20T05:37:54.960Z,0
2017-01-20T05:38:35.731Z,0
2017-01-20T05:39:16.364Z,0
2017-01-20T05:39:56.910Z,0
2017-01-20T05:40:37.438Z,0
2017-01-20T05:41:18.014Z,0
2017-01-20T05:41:58.644Z,0
2017-01-20T05:42:39.212Z,0
2017-01-20T05:43:19.860Z,0
2017-01-20T05:44:00.477Z,0
2017-01-20T05:44:41.114Z,0
2017-01-20T05:45:21.703Z,0
2017-01-20T05:46:02.255Z,0
2017-01-20T05:46:42.775Z,0
2017-01-20T05:47:23.310Z,0
2017-01-20T05:48:03.833Z,0
2017-01-20T05:48:44.369Z,0
2017-01-20T05:49:24.950Z,0
2017-01-20T05:50:05.506Z,0
2017-01-20T05:50:45.994Z,0
2017-01-20T05:51:26.560Z,0
2017-01-20T05:52:07.159Z,0
2017-01-20T05:52:47.754Z,0
2017-01-20T05:53:28.347Z,0
2017-01-20T05:54:08.939Z,0
2017-01-20T05:54:49.535Z,0
2017-01-20T05:55:30.116Z,0
2017-01-20T05:56:10.677Z,0
2017-01-20T05:56:51.176Z,0
2017-01-20T05:57:31.689Z,0
2017-01-20T05:58:12.189Z,0
2017-01-20T05:58:52.696Z,0
2017-01-20T05:59:33.226Z,0
2017-01-20T06:00:13.742Z,0
2017-01-20T06:00:54.271Z,0
2017-01-20T06:01:34.798Z,0
2017-01-20T06:02:15.330Z,0
2017-01-20T06:02:55.868Z,0
2017-01-20T06:03:36.395Z,0
2017-01-20T06:04:16.921Z,0
2017-01-20T06:04:57.456Z,0
2017-01-20T06:05:37.957Z,0
2017-01-20T06:06:18.480Z,0
2017-01-20T06:06:59.026Z,0
2017-01-20T06:07:39.550Z,0
2017-01-20T06:08:20.079Z,0
2017-01-20T06:09:00.610Z,0
2017-01-20T06:09:41.140Z,0
2017-01-20T06:10:21.660Z,0
2017-01-20T06:11:02.207Z,0
2017-01-20T06:11:42.722Z,0
2017-01-20T06:12:23.254Z,0
2017-01-20T06:13:03.788Z,0
2017-01-20T06:13:44.321Z,0
2017-01-20T06:14:24.854Z,0
2017-01-20T06:15:05.408Z,0
2017-01-20T06:15:45.937Z,0
2017-01-20T06:16:26.464Z,0
2017-01-20T06:17:06.990Z,0
2017-01-20T06:17:47.511Z,0
2017-01-20T06:18:28.039Z,0
2017-01-20T06:19:08.574Z,0
2017-01-20T06:19:49.098Z,0
2017-01-20T06:20:29.626Z,0
2017-01-20T06:21:10.158Z,0
2017-01-20T06:21:50.687Z,0
2017-01-20T06:22:31.217Z,0
2017-01-20T06:23:11.749Z,0
2017-01-20T06:23:52.268Z,0
2017-01-20T06:24:32.810Z,0
2017-01-20T06:25:13.340Z,0
2017-01-20T06:25:53.869Z,0
2017-01-20T06:26:34.400Z,0
2017-01-20T06:27:14.936Z,0
2017-01-20T06:27:55.483Z,0
2017-01-20T06:28:36.013Z,0
2017-01-20T06:29:16.541Z,0
2017-01-20T06:29:57.066Z,0
2017-01-20T06:30:37.605Z,0
2017-01-20T06:31:18.149Z,0
2017-01-20T06:31:58.668Z,0
2017-01-20T06:32:39.194Z,0
2017-01-20T06:33:19.723Z,0
2017-01-20T06:34:00.254Z,0
2017-01-20T06:34:40.784Z,0
2017-01-20T06:35:21.315Z,0
2017-01-20T06:36:01.846Z,0
2017-01-20T06:36:42.361Z,0
2017-01-20T06:37:22.890Z,0
2017-01-20T06:38:03.420Z,0
2017-01-20T06:38:43.947Z,0
2017-01-20T06:39:24.478Z,0
2017-01-20T06:40:05.009Z,0
2017-01-20T06:42:34.497Z,0
2017-01-20T06:43:15.026Z,0
2017-01-20T06:43:55.555Z,0
2017-01-20T06:44:36.083Z,0
2017-01-20T06:45:16.611Z,0
2017-01-20T06:45:57.220Z,0
2017-01-20T06:46:37.757Z,0
2017-01-20T06:47:18.274Z,0
2017-01-20T06:47:58.801Z,4
2017-01-20T06:48:39.333Z,4
2017-01-20T06:49:19.849Z,4
2017-01-20T06:50:00.375Z,4
2017-01-20T06:50:40.905Z,0
2017-01-20T06:51:21.425Z,0
2017-01-20T06:52:01.952Z,0
2017-01-20T06:52:42.469Z,4
2017-01-20T06:53:22.998Z,4
2017-01-20T06:54:03.529Z,0
2017-01-20T06:54:44.047Z,4
2017-01-20T06:55:24.576Z,4
2017-01-20T06:56:05.094Z,4
2017-01-20T06:56:45.614Z,4
2017-01-20T06:57:26.140Z,4
2017-01-20T06:58:07.706Z,8
2017-01-20T06:58:48.257Z,4
2017-01-20T06:59:28.795Z,8
2017-01-20T07:00:09.324Z,8
2017-01-20T07:00:49.858Z,12
2017-01-20T07:01:30.381Z,8
2017-01-20T07:02:10.893Z,8
2017-01-20T07:02:51.420Z,12
2017-01-20T07:03:31.951Z,16
2017-01-20T07:04:12.481Z,16
2017-01-20T07:04:53.004Z,16
2017-01-20T07:05:33.539Z,16
2017-01-20T07:06:14.079Z,20
2017-01-20T07:06:54.681Z,20
2017-01-20T07:07:35.208Z,24
2017-01-20T07:08:15.741Z,28
2017-01-20T07:08:56.265Z,28
2017-01-20T07:09:36.794Z,28
2017-01-20T07:10:17.326Z,32
2017-01-20T07:10:57.859Z,36
2017-01-20T07:11:38.412Z,36
2017-01-20T07:12:18.959Z,40
2017-01-20T07:12:59.485Z,44
2017-01-20T07:13:40.019Z,48
2017-01-20T07:14:20.548Z,48
2017-01-20T07:15:01.077Z,56
2017-01-20T07:15:41.606Z,60
2017-01-20T07:16:22.128Z,60
2017-01-20T07:17:02.772Z,68
2017-01-20T07:17:44.225Z,72
2017-01-20T07:18:25.029Z,76
2017-01-20T07:19:05.547Z,80
2017-01-20T07:19:46.081Z,84
2017-01-20T07:20:26.604Z,88
2017-01-20T07:21:08.874Z,96
2017-01-20T07:21:49.388Z,100
2017-01-20T07:22:29.913Z,104
2017-01-20T07:23:10.438Z,112
2017-01-20T07:23:50.951Z,116
2017-01-20T07:24:31.484Z,124
2017-01-20T07:25:12.028Z,128
2017-01-20T07:25:52.560Z,140
2017-01-20T07:26:33.096Z,144
2017-01-20T07:27:13.634Z,152
2017-01-20T07:27:54.153Z,156
2017-01-20T07:28:34.679Z,164
2017-01-20T07:29:15.209Z,172
2017-01-20T07:29:55.742Z,180
2017-01-20T07:30:36.268Z,184
2017-01-20T07:31:16.801Z,192
2017-01-20T07:31:57.329Z,200
2017-01-20T07:32:37.849Z,208
2017-01-20T07:33:18.387Z,216
2017-01-20T07:33:58.923Z,220
2017-01-20T07:34:39.452Z,224
2017-01-20T07:35:20.045Z,232
2017-01-20T07:36:00.572Z,240
2017-01-20T07:36:41.105Z,252
2017-01-20T07:37:21.637Z,256
2017-01-20T07:38:02.163Z,268
2017-01-20T07:38:42.693Z,272
2017-01-20T07:39:23.231Z,284
2017-01-20T07:40:03.755Z,292
2017-01-20T07:40:44.277Z,300
2017-01-20T07:41:24.796Z,308
2017-01-20T07:42:05.326Z,316
2017-01-20T07:42:45.849Z,328
2017-01-20T07:43:26.379Z,336
2017-01-20T07:44:06.904Z,344
2017-01-20T07:44:47.436Z,352
2017-01-20T07:45:27.962Z,364
2017-01-20T07:46:08.496Z,372
2017-01-20T07:46:49.026Z,380
2017-01-20T07:47:29.555Z,388
2017-01-20T07:48:10.088Z,400
2017-01-20T07:48:50.614Z,408
2017-01-20T07:49:31.132Z,416
2017-01-20T07:50:11.662Z,424
2017-01-20T07:50:52.197Z,436
2017-01-20T07:51:32.731Z,444
2017-01-20T07:52:13.260Z,452
2017-01-20T07:52:53.783Z,460
2017-01-20T07:53:34.311Z,468
2017-01-20T07:54:14.829Z,476
2017-01-20T07:54:55.358Z,484
2017-01-20T07:55:35.877Z,492
2017-01-20T07:56:16.390Z,500
2017-01-20T07:56:56.916Z,508
2017-01-20T07:57:37.434Z,516
2017-01-20T07:58:17.964Z,528
2017-01-20T07:58:58.498Z,532
2017-01-20T07:59:39.033Z,540
2017-01-20T08:00:19.562Z,552
2017-01-20T08:01:00.085Z,560
2017-01-20T08:01:40.611Z,568
2017-01-20T08:02:21.150Z,576
2017-01-20T08:03:01.683Z,584
2017-01-20T08:03:42.212Z,592
2017-01-20T08:04:22.739Z,600
2017-01-20T08:05:03.267Z,608
2017-01-20T08:05:43.800Z,616
2017-01-20T08:06:24.352Z,624
2017-01-20T08:07:04.884Z,632
2017-01-20T08:07:45.417Z,640
2017-01-20T08:08:25.941Z,652
2017-01-20T08:09:06.472Z,664
2017-01-20T08:09:47.099Z,676
2017-01-20T08:10:27.632Z,696
2017-01-20T08:11:08.161Z,712
2017-01-20T08:11:48.686Z,728
2017-01-20T08:12:29.219Z,752
2017-01-20T08:13:09.747Z,768
2017-01-20T08:13:50.269Z,788
2017-01-20T08:14:30.795Z,800
2017-01-20T08:15:11.318Z,812
2017-01-20T08:15:51.851Z,824
2017-01-20T08:16:32.375Z,844
2017-01-20T08:17:12.894Z,872
2017-01-20T08:17:53.425Z,944
2017-01-20T08:18:33.958Z,948
2017-01-20T08:19:14.480Z,916
2017-01-20T08:19:55.005Z,848
2017-01-20T08:20:35.532Z,828
2017-01-20T08:21:16.059Z,828
2017-01-20T08:21:56.582Z,832
2017-01-20T08:22:37.124Z,832
2017-01-20T08:23:17.657Z,832
2017-01-20T08:23:58.254Z,836
2017-01-20T08:24:38.777Z,844
2017-01-20T08:25:19.317Z,860
2017-01-20T08:25:59.824Z,868
2017-01-20T08:26:40.352Z,872
2017-01-20T08:27:20.888Z,872
2017-01-20T08:28:01.413Z,872
2017-01-20T08:28:41.942Z,868
2017-01-20T08:29:22.467Z,888
2017-01-20T08:30:02.994Z,900
2017-01-20T08:30:43.518Z,916
2017-01-20T08:31:24.050Z,916
2017-01-20T08:32:04.573Z,928
2017-01-20T08:32:45.098Z,928
2017-01-20T08:33:25.626Z,920
2017-01-20T08:34:06.145Z,920
2017-01-20T08:34:46.667Z,932
2017-01-20T08:35:27.198Z,952
2017-01-20T08:36:07.731Z,972
2017-01-20T08:36:48.254Z,996
2017-01-20T08:37:28.779Z,1016
2017-01-20T08:38:09.316Z,1032
2017-01-20T08:38:49.831Z,1056
2017-01-20T08:39:30.351Z,1072
2017-01-20T08:40:10.874Z,1088
2017-01-20T08:40:51.406Z,1120
2017-01-20T08:41:31.930Z,1148
2017-01-20T08:42:12.455Z,1172
2017-01-20T08:42:52.980Z,1196
2017-01-20T08:43:33.516Z,1220
2017-01-20T08:44:14.042Z,1244
2017-01-20T08:44:54.582Z,1260
2017-01-20T08:45:35.103Z,1252
2017-01-20T08:46:15.641Z,1244
2017-01-20T08:46:56.167Z,1224
2017-01-20T08:47:36.692Z,1208
2017-01-20T08:48:17.223Z,1208
2017-01-20T08:48:57.755Z,1204
2017-01-20T08:49:38.278Z,1192
2017-01-20T08:50:18.804Z,1172
2017-01-20T08:50:59.323Z,1140
2017-01-20T08:51:39.852Z,1116
2017-01-20T08:52:20.384Z,1104
2017-01-20T08:53:00.907Z,1104
2017-01-20T08:53:41.436Z,1100
2017-01-20T08:54:21.972Z,1108
2017-01-20T08:55:02.498Z,1136
2017-01-20T08:55:43.023Z,1188
2017-01-20T08:56:23.555Z,1252
2017-01-20T08:57:04.084Z,1300
2017-01-20T08:57:44.602Z,1340
2017-01-20T08:58:25.132Z,1380
2017-01-20T08:59:05.666Z,1452
2017-01-20T08:59:46.191Z,1584
2017-01-20T09:00:26.723Z,1752
2017-01-20T09:01:07.253Z,1968
2017-01-20T09:01:47.783Z,2236
2017-01-20T09:02:28.317Z,2708
2017-01-20T09:03:08.844Z,2980
2017-01-20T09:03:49.386Z,3124
2017-01-20T09:04:29.893Z,3124
2017-01-20T09:05:10.430Z,3156
2017-01-20T09:05:50.960Z,2968
2017-01-20T09:06:31.491Z,2944
2017-01-20T09:07:12.016Z,3756
2017-01-20T09:07:52.543Z,4920
2017-01-20T09:08:33.083Z,5664
2017-01-20T09:09:13.615Z,5468
2017-01-20T09:09:54.144Z,4576
2017-01-20T09:10:34.678Z,4096
2017-01-20T09:11:15.195Z,4452
2017-01-20T09:11:55.736Z,4928
2017-01-20T09:12:36.272Z,5612
2017-01-20T09:13:16.786Z,6020
2017-01-20T09:13:57.326Z,6444
2017-01-20T09:14:37.856Z,7256
2017-01-20T09:15:18.390Z,8284
2017-01-20T09:15:58.923Z,8724
2017-01-20T09:16:39.452Z,8780
2017-01-20T09:17:19.990Z,8700
2017-01-20T09:18:00.505Z,9472
2017-01-20T09:18:41.039Z,9696
2017-01-20T09:19:21.572Z,9048
2017-01-20T09:20:02.125Z,8492
2017-01-20T09:20:42.666Z,8784
2017-01-20T09:21:23.200Z,9896
2017-01-20T09:22:03.736Z,10024
2017-01-20T09:22:44.253Z,9808
2017-01-20T09:23:24.788Z,8952
2017-01-20T09:24:05.309Z,7708
2017-01-20T09:24:45.834Z,6808
2017-01-20T09:25:26.356Z,6072
2017-01-20T09:26:06.898Z,5160
2017-01-20T09:26:47.433Z,4504
2017-01-20T09:27:27.957Z,4508
2017-01-20T09:28:08.491Z,4580
2017-01-20T09:28:49.027Z,4504
2017-01-20T09:29:29.561Z,4356
2017-01-20T09:30:10.092Z,4172
2017-01-20T09:30:50.631Z,4120
2017-01-20T09:31:31.160Z,4008
2017-01-20T09:32:11.701Z,3868
2017-01-20T09:32:52.232Z,3764
2017-01-20T09:33:32.771Z,3696
2017-01-20T09:34:13.306Z,3744
2017-01-20T09:34:53.844Z,3792
2017-01-20T09:35:34.381Z,3880
2017-01-20T09:36:14.915Z,3976
2017-01-20T09:36:55.455Z,4060
2017-01-20T09:37:35.992Z,4164
2017-01-20T09:38:16.526Z,4288
2017-01-20T09:38:57.058Z,4484
2017-01-20T09:39:37.591Z,4696
2017-01-20T09:40:18.121Z,4960
2017-01-20T09:40:58.666Z,5312
2017-01-20T09:41:39.202Z,5940
2017-01-20T09:42:19.731Z,6736
2017-01-20T09:43:00.265Z,7640
2017-01-20T09:43:40.808Z,9376
2017-01-20T09:44:21.339Z,10836
2017-01-20T09:45:01.908Z,12592
2017-01-20T09:45:42.433Z,14336
2017-01-20T09:46:23.008Z,16416
2017-01-20T09:47:03.548Z,16896
2017-01-20T09:47:44.075Z,16832
2017-01-20T09:48:24.619Z,17600
2017-01-20T09:49:05.146Z,18880
2017-01-20T09:49:45.683Z,18976
2017-01-20T09:50:26.215Z,19168
2017-01-20T09:51:06.756Z,19616
2017-01-20T09:51:47.290Z,19968
2017-01-20T09:52:27.827Z,20512
2017-01-20T09:53:08.367Z,20480
2017-01-20T09:53:48.901Z,20384
2017-01-20T09:54:29.437Z,20192
2017-01-20T09:55:09.973Z,19808
2017-01-20T09:55:50.503Z,19648
2017-01-20T09:56:31.042Z,19072
2017-01-20T09:57:11.580Z,19392
2017-01-20T09:57:52.119Z,20736
2017-01-20T09:58:32.734Z,21472
2017-01-20T09:59:13.267Z,21760
2017-01-20T09:59:53.808Z,21664
2017-01-20T10:00:34.340Z,21728
2017-01-20T10:01:14.886Z,22208
2017-01-20T10:01:55.418Z,22496
2017-01-20T10:02:35.955Z,23072
2017-01-20T10:03:16.488Z,23456
2017-01-20T10:03:57.033Z,23744
2017-01-20T10:04:37.571Z,23936
2017-01-20T10:05:18.142Z,24064
2017-01-20T10:05:58.683Z,24448
2017-01-20T10:06:39.226Z,24832
2017-01-20T10:07:19.756Z,24960
2017-01-20T10:08:00.292Z,25408
2017-01-20T10:08:40.824Z,25248
2017-01-20T10:09:21.357Z,25088
2017-01-20T10:10:01.886Z,25120
2017-01-20T10:10:42.417Z,25280
2017-01-20T10:11:22.948Z,25280
2017-01-20T10:12:03.473Z,25152
2017-01-20T10:12:44.010Z,25728
2017-01-20T10:13:24.549Z,26336
2017-01-20T10:14:05.078Z,27072
2017-01-20T10:14:45.614Z,27264
2017-01-20T10:15:26.149Z,27808
2017-01-20T10:16:06.698Z,28896
2017-01-20T10:16:47.230Z,28576
2017-01-20T10:17:27.761Z,28192
2017-01-20T10:18:08.299Z,28320
2017-01-20T10:18:48.836Z,28000
2017-01-20T10:19:29.366Z,28096
2017-01-20T10:20:09.944Z,27648
2017-01-20T10:20:50.488Z,27648
2017-01-20T10:21:31.029Z,23904
2017-01-20T10:22:11.566Z,16256
2017-01-20T10:22:52.102Z,10748
2017-01-20T10:23:32.635Z,9244
2017-01-20T10:24:13.178Z,8928